Time;durP1;ratioP1;P1;durP2;ratioP2;P2;SDS_P1;SDS_P2;PMS_P1;PMS_P2;Temp;Humidity;BMP_temperature;BMP_pressure;BME280_temperature;BME280_humidity;BME280_pressure;Samples;Min_cycle;Max_cycle;Signal;HPM_P1;HPM_P2
2024/02/11 00:02:37;;;;;;;47.60;29.00;;;;;;;8.49;95.99;98196.83;134172;1265;106682;-79
2024/02/11 00:05:44;;;;;;;50.80;29.20;;;;;;;8.46;95.87;98194.92;134175;1267;107538;-79
2024/02/11 00:08:49;;;;;;;46.80;25.90;;;;;;;8.43;96.08;98197.88;134161;1266;107835;-79
2024/02/11 00:11:55;;;;;;;44.60;23.80;;;;;;;8.41;95.98;98197.19;134164;1266;106627;-79
2024/02/11 00:15:01;;;;;;;54.00;29.00;;;;;;;8.42;96.23;98195.03;134182;1269;107177;-79
2024/02/11 00:18:07;;;;;;;50.80;29.10;;;;;;;8.44;96.07;98195.67;134176;1266;107337;-79
2024/02/11 00:21:13;;;;;;;47.30;28.70;;;;;;;8.45;96.03;98197.70;134178;1266;107596;-79
2024/02/11 00:24:19;;;;;;;50.30;29.10;;;;;;;8.45;96.03;98197.33;134178;1265;108333;-79
2024/02/11 00:27:25;;;;;;;48.70;25.90;;;;;;;8.41;96.06;98197.05;134199;1266;109329;-79
2024/02/11 00:30:31;;;;;;;41.80;23.80;;;;;;;8.39;96.02;98194.26;134168;1265;107494;-79
2024/02/11 00:33:39;;;;;;;50.00;29.50;;;;;;;8.39;96.06;98196.05;134177;1267;108754;-79
2024/02/11 00:36:44;;;;;;;43.70;25.80;;;;;;;8.38;96.02;98192.45;134196;1267;108849;-79
2024/02/11 00:39:50;;;;;;;48.20;28.30;;;;;;;8.39;95.93;98194.59;134189;1266;107774;-79
2024/02/11 00:42:56;;;;;;;48.00;28.40;;;;;;;8.39;95.93;98194.29;134165;1267;107897;-79
2024/02/11 00:46:02;;;;;;;45.20;25.40;;;;;;;8.36;95.88;98188.42;134188;1267;108447;-79
2024/02/11 00:49:08;;;;;;;48.10;25.60;;;;;;;8.32;95.95;98186.37;134178;1266;108020;-79
2024/02/11 00:52:15;;;;;;;47.70;28.10;;;;;;;8.27;96.00;98182.52;134227;1267;108712;-79
2024/02/11 00:55:21;;;;;;;48.90;28.40;;;;;;;8.24;96.07;98192.75;134208;1266;106420;-78
2024/02/11 00:58:27;;;;;;;46.30;27.00;;;;;;;8.21;96.06;98194.86;134213;1265;106415;-78
2024/02/11 01:01:33;;;;;;;47.30;27.00;;;;;;;8.19;95.99;98192.13;134196;1266;107886;-78
2024/02/11 01:04:38;;;;;;;44.90;25.70;;;;;;;8.15;96.08;98188.91;134169;1267;107639;-79
2024/02/11 01:07:44;;;;;;;41.00;23.70;;;;;;;8.12;96.19;98191.45;134169;1266;107556;-79
2024/02/11 01:10:49;;;;;;;37.90;22.70;;;;;;;8.10;96.14;98190.06;134176;1267;106074;-79
2024/02/11 01:13:55;;;;;;;45.90;27.70;;;;;;;8.09;96.35;98185.60;134168;1266;108332;-78
2024/02/11 01:17:01;;;;;;;45.40;26.40;;;;;;;8.11;96.10;98183.46;134182;1266;106760;-78
2024/02/11 01:20:09;;;;;;;44.20;27.10;;;;;;;8.13;96.25;98181.37;134208;1267;107045;-79
2024/02/11 01:23:15;;;;;;;45.70;27.60;;;;;;;8.16;96.09;98186.36;134156;1267;108882;-78
2024/02/11 01:26:21;;;;;;;42.60;24.50;;;;;;;8.14;95.94;98184.47;134162;1266;107710;-79
2024/02/11 01:29:26;;;;;;;40.60;22.30;;;;;;;8.11;96.12;98178.01;134120;1265;108805;-79
2024/02/11 01:32:32;;;;;;;45.00;26.60;;;;;;;8.12;96.29;98177.39;134219;1265;106458;-78
2024/02/11 01:35:41;;;;;;;47.80;26.80;;;;;;;8.13;95.90;98176.70;134214;1266;107753;-79
2024/02/11 01:38:47;;;;;;;41.80;25.20;;;;;;;8.14;96.15;98172.02;134175;1266;108837;-78
2024/02/11 01:41:53;;;;;;;43.70;26.30;;;;;;;8.15;95.86;98173.09;134221;1266;107697;-79
2024/02/11 01:44:58;;;;;;;46.10;27.50;;;;;;;8.15;96.09;98169.21;134157;1267;108138;-79
2024/02/11 01:48:05;;;;;;;47.90;27.80;;;;;;;8.15;95.79;98170.68;134167;1267;107157;-79
2024/02/11 01:51:11;;;;;;;52.00;34.10;;;;;;;8.14;95.83;98163.92;134195;1267;108717;-79
2024/02/11 01:54:20;;;;;;;45.00;27.40;;;;;;;8.14;95.97;98167.60;134180;1265;108412;-79
2024/02/11 01:57:26;;;;;;;46.00;27.80;;;;;;;8.15;95.99;98169.08;134165;1266;107470;-79
2024/02/11 02:00:32;;;;;;;46.50;28.50;;;;;;;8.16;95.83;98170.19;134217;1264;108769;-79
2024/02/11 02:03:38;;;;;;;42.00;23.70;;;;;;;8.14;95.83;98163.02;134208;1265;107125;-79
2024/02/11 02:06:44;;;;;;;49.30;24.10;;;;;;;8.12;95.83;98160.92;134192;1266;107923;-79
2024/02/11 02:09:52;;;;;;;71.80;33.20;;;;;;;8.12;95.99;98160.08;134213;1265;107673;-79
2024/02/11 02:12:59;;;;;;;43.30;25.80;;;;;;;8.12;95.84;98160.30;134204;1266;107662;-79
2024/02/11 02:16:08;;;;;;;44.00;25.60;;;;;;;8.12;95.84;98160.80;134176;1265;106733;-79
2024/02/11 02:19:14;;;;;;;46.10;26.30;;;;;;;8.13;95.84;98161.59;134189;1265;108459;-79
2024/02/11 02:22:20;;;;;;;40.10;23.30;;;;;;;8.12;95.73;98163.98;134172;1266;106577;-79
2024/02/11 02:25:26;;;;;;;45.50;24.60;;;;;;;8.07;95.81;98163.98;134177;1265;108514;-79
2024/02/11 02:28:32;;;;;;;44.90;24.60;;;;;;;8.07;95.79;98165.21;134206;1265;107937;-79
2024/02/11 02:31:37;;;;;;;47.70;27.50;;;;;;;8.10;95.75;98163.15;134197;1265;108756;-79
2024/02/11 02:34:43;;;;;;;44.00;26.20;;;;;;;8.11;95.90;98158.42;134203;1265;108748;-79
2024/02/11 02:37:51;;;;;;;49.60;28.40;;;;;;;8.10;95.74;98164.86;134198;1265;108812;-79
2024/02/11 02:40:56;;;;;;;43.60;25.10;;;;;;;8.07;95.68;98161.59;134172;1266;108420;-79
2024/02/11 02:44:03;;;;;;;37.40;20.30;;;;;;;8.03;95.67;98167.12;134159;1265;108753;-79
2024/02/11 02:47:11;;;;;;;39.20;23.60;;;;;;;8.03;95.79;98167.82;134194;1266;107685;-79
2024/02/11 02:50:17;;;;;;;42.50;25.80;;;;;;;8.04;95.97;98164.26;134172;1266;108722;-79
2024/02/11 02:53:24;;;;;;;63.60;33.80;;;;;;;8.05;95.90;98167.27;134148;1266;108908;-79
2024/02/11 02:56:31;;;;;;;46.80;26.30;;;;;;;8.05;95.81;98158.02;134191;1265;106471;-79
2024/02/11 02:59:38;;;;;;;39.70;22.60;;;;;;;8.07;95.74;98157.08;134166;1265;108673;-79
2024/02/11 03:02:44;;;;;;;39.70;23.30;;;;;;;8.07;95.90;98156.75;134162;1265;108771;-79
2024/02/11 03:05:50;;;;;;;42.00;25.50;;;;;;;8.08;95.69;98157.00;134186;1264;106237;-79
2024/02/11 03:08:55;;;;;;;40.60;25.60;;;;;;;8.09;95.76;98158.88;134202;1264;109698;-79
2024/02/11 03:12:01;;;;;;;39.90;24.70;;;;;;;8.10;95.74;98159.62;134201;1265;106634;-79
2024/02/11 03:15:10;;;;;;;44.70;26.20;;;;;;;8.11;95.53;98164.55;134222;1266;108894;-79
2024/02/11 03:18:15;;;;;;;44.10;26.20;;;;;;;8.10;95.61;98164.16;134187;1265;107057;-79
2024/02/11 03:21:21;;;;;;;43.40;24.80;;;;;;;8.06;95.66;98164.65;134170;1266;107079;-79
2024/02/11 03:24:26;;;;;;;37.60;22.00;;;;;;;8.03;95.64;98161.68;134181;1265;107732;-79
2024/02/11 03:27:34;;;;;;;38.90;23.90;;;;;;;7.98;95.58;98152.00;134197;1266;106417;-79
2024/02/11 03:30:39;;;;;;;39.40;23.20;;;;;;;8.01;95.66;98156.46;134203;1265;107501;-79
2024/02/11 03:33:45;;;;;;;42.20;24.30;;;;;;;8.03;95.59;98159.60;134195;1266;106445;-79
2024/02/11 03:36:50;;;;;;;37.90;23.60;;;;;;;8.01;95.66;98164.36;134206;1266;106415;-79
2024/02/11 03:39:57;;;;;;;39.00;22.60;;;;;;;8.02;95.66;98161.88;134195;1265;106852;-79
2024/02/11 03:43:02;;;;;;;33.60;19.60;;;;;;;8.02;95.63;98161.83;134186;1265;108585;-79
2024/02/11 03:46:08;;;;;;;38.40;24.50;;;;;;;8.03;95.57;98160.95;134190;1264;107911;-79
2024/02/11 03:49:15;;;;;;;38.10;23.60;;;;;;;8.06;95.68;98157.02;134079;1266;147166;-79
2024/02/11 03:52:20;;;;;;;38.80;24.50;;;;;;;8.10;95.44;98157.34;134172;1266;108809;-79
2024/02/11 03:55:27;;;;;;;41.90;25.90;;;;;;;8.11;95.41;98155.97;134199;1265;107837;-79
2024/02/11 03:58:34;;;;;;;39.50;24.50;;;;;;;8.10;95.46;98157.66;134199;1265;108673;-79
2024/02/11 04:01:40;;;;;;;37.10;21.50;;;;;;;8.06;95.46;98155.86;134194;1265;108597;-79
2024/02/11 04:04:46;;;;;;;32.80;19.80;;;;;;;8.01;95.40;98158.67;134167;1265;108675;-79
2024/02/11 04:07:52;;;;;;;37.00;22.50;;;;;;;8.00;95.52;98153.96;134210;1265;108445;-78
2024/02/11 04:10:59;;;;;;;40.50;23.50;;;;;;;7.98;95.62;98155.02;134171;1265;108550;-79
2024/02/11 04:14:06;;;;;;;37.10;23.30;;;;;;;7.99;95.65;98154.17;134180;1265;108715;-79
2024/02/11 04:17:13;;;;;;;34.10;23.00;;;;;;;7.99;95.48;98153.88;134171;1265;108876;-79
2024/02/11 04:20:24;;;;;;;35.20;21.40;;;;;;;7.99;95.55;98154.08;134159;1266;108690;-79
2024/02/11 04:23:29;;;;;;;32.00;19.60;;;;;;;7.98;95.42;98152.59;134173;1264;108442;-79
2024/02/11 04:26:36;;;;;;;36.70;23.00;;;;;;;7.98;95.47;98154.36;134199;1265;106717;-79
2024/02/11 04:29:44;;;;;;;36.50;22.80;;;;;;;7.99;95.40;98153.80;134210;1265;108674;-79
2024/02/11 04:32:49;;;;;;;37.00;23.60;;;;;;;8.00;95.42;98154.95;134194;1265;107718;-79
2024/02/11 04:35:55;;;;;;;36.70;23.40;;;;;;;8.04;95.38;98156.46;134227;1265;108330;-79
2024/02/11 04:39:07;;;;;;;33.80;20.80;;;;;;;8.01;95.10;98151.85;134170;1265;108780;-78
2024/02/11 04:42:12;;;;;;;42.20;26.20;;;;;;;7.98;95.29;98145.98;134172;1265;108369;-79
2024/02/11 04:45:18;;;;;;;35.40;22.00;;;;;;;7.96;95.22;98142.53;134176;1264;108212;-78
2024/02/11 04:48:25;;;;;;;35.80;22.40;;;;;;;7.94;95.30;98140.80;134191;1266;106552;-79
2024/02/11 04:51:30;;;;;;;35.40;22.60;;;;;;;7.96;95.28;98139.01;134182;1266;108678;-79
2024/02/11 04:54:37;;;;;;;37.20;23.60;;;;;;;7.95;95.23;98139.42;134180;1264;108723;-79
2024/02/11 04:57:43;;;;;;;36.40;23.70;;;;;;;7.92;95.19;98137.73;134193;1265;106694;-78
2024/02/11 05:00:50;;;;;;;35.30;20.90;;;;;;;7.89;95.09;98135.50;134193;1266;108694;-79
2024/02/11 05:03:59;;;;;;;32.20;19.70;;;;;;;7.85;95.14;98132.04;134178;1265;106210;-79
2024/02/11 05:07:07;;;;;;;32.10;21.20;;;;;;;7.82;95.20;98127.55;134175;1264;107589;-79
2024/02/11 05:10:13;;;;;;;33.50;21.90;;;;;;;7.81;95.22;98125.79;134184;1265;106415;-79
2024/02/11 05:13:18;;;;;;;37.00;24.00;;;;;;;7.82;95.13;98123.67;134200;1264;108616;-79
2024/02/11 05:16:28;;;;;;;38.00;23.80;;;;;;;7.81;95.28;98120.10;134213;1265;108697;-79
2024/02/11 05:19:33;;;;;;;33.00;20.50;;;;;;;7.79;95.20;98124.62;134167;1266;107805;-78
2024/02/11 05:22:44;;;;;;;36.70;21.20;;;;;;;7.77;95.31;98124.80;134183;1266;107063;-79
2024/02/11 05:25:50;;;;;;;41.70;24.50;;;;;;;7.77;95.18;98123.78;134186;1265;108578;-79
2024/02/11 05:28:57;;;;;;;38.60;25.30;;;;;;;7.78;95.13;98126.89;134194;1265;108690;-79
2024/02/11 05:32:06;;;;;;;41.20;25.00;;;;;;;7.78;95.15;98129.67;134186;1265;106874;-79
2024/02/11 05:35:13;;;;;;;35.50;23.50;;;;;;;7.80;95.06;98130.55;134201;1265;107789;-79
2024/02/11 05:38:21;;;;;;;33.20;21.20;;;;;;;7.79;95.16;98130.75;134186;1265;108660;-78
2024/02/11 05:41:27;;;;;;;31.30;19.00;;;;;;;7.78;95.24;98132.20;134165;1265;108669;-79
2024/02/11 05:44:32;;;;;;;33.50;22.60;;;;;;;7.78;95.11;98131.83;134198;1266;107994;-79
2024/02/11 05:47:38;;;;;;;33.40;22.40;;;;;;;7.79;95.15;98129.73;134213;1264;106882;-79
2024/02/11 05:50:47;;;;;;;33.50;22.80;;;;;;;7.79;95.15;98133.20;134210;1266;108589;-79
2024/02/11 05:53:52;;;;;;;36.60;24.50;;;;;;;7.79;95.26;98133.47;134213;1265;108786;-79
2024/02/11 05:56:58;;;;;;;40.80;25.00;;;;;;;7.78;95.13;98132.99;134192;1265;108796;-79
2024/02/11 06:00:10;;;;;;;47.00;26.10;;;;;;;7.79;95.17;98131.45;134185;1265;108701;-79
2024/02/11 06:03:20;;;;;;;61.80;30.30;;;;;;;7.80;95.14;98128.76;134131;1265;108317;-78
2024/02/11 06:06:26;;;;;;;48.30;26.00;;;;;;;7.80;95.10;98125.41;134198;1266;106534;-79
2024/02/11 06:09:32;;;;;;;39.00;23.50;;;;;;;7.81;94.84;98126.29;134222;1266;105707;-78
2024/02/11 06:12:38;;;;;;;36.80;23.50;;;;;;;7.80;94.87;98121.85;134177;1265;106955;-79
2024/02/11 06:15:44;;;;;;;31.90;20.40;;;;;;;7.78;94.95;98122.77;134165;1266;107633;-79
2024/02/11 06:18:49;;;;;;;29.30;18.90;;;;;;;7.77;95.00;98120.95;134206;1264;108690;-78
2024/02/11 06:21:55;;;;;;;29.10;18.70;;;;;;;7.79;95.33;98124.77;134189;1265;108652;-79
2024/02/11 06:25:01;;;;;;;32.00;20.30;;;;;;;7.82;95.21;98122.21;134200;1265;106697;-78
2024/02/11 06:28:08;;;;;;;31.90;21.70;;;;;;;7.88;95.09;98122.14;134208;1263;107734;-78
2024/02/11 06:31:15;;;;;;;34.30;21.30;;;;;;;7.91;95.20;98124.09;134237;1263;107743;-77
2024/02/11 06:34:22;;;;;;;35.40;22.10;;;;;;;7.92;95.04;98123.70;134207;1263;106736;-77
2024/02/11 06:37:27;;;;;;;39.80;24.80;;;;;;;7.93;94.81;98119.70;134171;1263;108738;-77
2024/02/11 06:40:34;;;;;;;32.90;22.20;;;;;;;7.92;94.85;98120.02;134156;1263;107673;-78
2024/02/11 06:43:40;;;;;;;38.90;26.80;;;;;;;7.92;94.88;98120.34;134189;1263;106939;-77
2024/02/11 06:46:46;;;;;;;43.00;28.50;;;;;;;7.94;95.03;98117.30;134251;1263;108708;-77
2024/02/11 06:49:52;;;;;;;45.00;28.30;;;;;;;7.98;95.05;98119.84;134201;1263;107256;-77
2024/02/11 06:52:58;;;;;;;39.80;26.20;;;;;;;8.01;95.09;98117.45;134260;1263;107707;-77
2024/02/11 06:56:03;;;;;;;46.40;29.80;;;;;;;8.04;95.04;98114.95;134213;1263;108560;-77
2024/02/11 06:59:09;;;;;;;49.10;30.00;;;;;;;8.05;95.05;98117.66;134209;1263;108341;-79
2024/02/11 07:02:15;;;;;;;44.30;26.70;;;;;;;8.07;94.85;98116.41;134206;1263;108084;-78
2024/02/11 07:05:21;;;;;;;40.10;25.70;;;;;;;8.10;94.91;98115.13;134235;1263;107634;-77
2024/02/11 07:08:27;;;;;;;43.60;28.40;;;;;;;8.13;94.83;98113.94;134264;1263;108724;-77
2024/02/11 07:11:33;;;;;;;42.30;28.20;;;;;;;8.17;94.97;98111.66;134246;1263;106605;-77
2024/02/11 07:14:39;;;;;;;46.80;29.60;;;;;;;8.20;94.98;98113.42;134203;1263;107269;-77
2024/02/11 07:17:45;;;;;;;41.40;26.30;;;;;;;8.22;94.97;98109.96;134196;1263;108656;-77
2024/02/11 07:20:52;;;;;;;35.50;22.40;;;;;;;8.23;94.97;98110.80;134207;1263;106407;-77
2024/02/11 07:23:57;;;;;;;43.90;27.80;;;;;;;8.25;94.97;98108.28;134158;1263;108654;-78
2024/02/11 07:27:06;;;;;;;43.90;27.50;;;;;;;8.29;95.06;98105.70;134243;1263;107568;-77
2024/02/11 07:30:13;;;;;;;45.10;29.60;;;;;;;8.34;95.03;98098.21;134190;1266;108962;-77
2024/02/11 07:33:36;;;;;;;46.70;30.90;;;;;;;8.39;95.13;98097.69;134217;1263;107195;-77
2024/02/11 07:36:42;;;;;;;38.90;26.50;;;;;;;8.41;95.05;98102.09;134212;1263;107511;-77
2024/02/11 07:39:47;;;;;;;43.00;26.40;;;;;;;8.42;95.22;98103.88;134213;1263;108756;-78
2024/02/11 07:42:54;;;;;;;46.40;29.80;;;;;;;8.45;95.16;98101.23;134226;1263;108627;-77
2024/02/11 07:46:01;;;;;;;50.10;32.20;;;;;;;8.48;95.07;98098.80;134223;1263;107646;-75
2024/02/11 07:49:07;;;;;;;50.70;31.10;;;;;;;8.52;95.22;98101.30;134251;1263;109460;-76
2024/02/11 07:52:12;;;;;;;52.90;33.80;;;;;;;8.55;95.28;98100.66;134271;1263;108583;-75
2024/02/11 07:55:19;;;;;;;46.60;31.40;;;;;;;8.59;95.20;98100.24;134213;1263;107485;-77
2024/02/11 07:58:24;;;;;;;54.50;34.00;;;;;;;8.60;95.27;98101.44;134218;1263;108707;-76
2024/02/11 08:01:32;;;;;;;52.10;35.30;;;;;;;8.64;95.20;98106.86;134225;1263;107601;-76
2024/02/11 08:04:38;;;;;;;49.10;32.30;;;;;;;8.69;95.25;98106.07;134197;1265;107521;-76
2024/02/11 08:07:43;;;;;;;43.80;30.30;;;;;;;8.75;95.43;98101.42;134210;1265;108605;-76
2024/02/11 08:10:49;;;;;;;43.60;30.50;;;;;;;8.78;95.18;98099.31;134197;1265;107220;-76
2024/02/11 08:13:54;;;;;;;46.70;29.90;;;;;;;8.79;95.23;98099.35;134220;1265;108695;-77
2024/02/11 08:17:00;;;;;;;35.80;23.50;;;;;;;8.81;95.22;98100.23;134172;1266;108516;-76
2024/02/11 08:20:08;;;;;;;51.80;28.60;;;;;;;8.85;95.43;98094.61;134215;1265;108674;-78
2024/02/11 08:23:13;;;;;;;49.70;29.20;;;;;;;8.93;95.62;98093.30;134215;1265;106623;-76
2024/02/11 08:26:20;;;;;;;48.50;28.70;;;;;;;9.02;95.47;98091.55;134187;1265;107786;-76
2024/02/11 08:29:25;;;;;;;39.00;25.80;;;;;;;9.10;95.43;98089.02;134189;1266;106468;-77
2024/02/11 08:32:31;;;;;;;38.20;23.00;;;;;;;9.13;95.55;98086.86;134183;1266;107864;-77
2024/02/11 08:35:36;;;;;;;36.60;22.90;;;;;;;9.19;95.51;98091.16;134168;1263;107776;-77
2024/02/11 08:38:42;;;;;;;33.70;22.20;;;;;;;9.30;95.63;98094.08;134201;1263;108828;-76
2024/02/11 08:41:47;;;;;;;37.50;23.10;;;;;;;9.41;95.40;98089.38;134209;1263;108608;-75
2024/02/11 08:44:54;;;;;;;42.80;26.00;;;;;;;9.56;95.62;98087.46;134236;1263;107717;-76
2024/02/11 08:48:00;;;;;;;37.10;23.70;;;;;;;9.69;95.55;98087.59;134210;1263;108150;-76
2024/02/11 08:51:06;;;;;;;32.20;20.10;;;;;;;9.78;95.28;98088.17;134209;1263;107424;-78
2024/02/11 08:54:12;;;;;;;29.10;18.10;;;;;;;9.85;95.37;98087.95;134205;1263;108701;-76
2024/02/11 08:57:22;;;;;;;30.90;20.60;;;;;;;9.92;95.46;98087.02;134200;1263;108081;-76
2024/02/11 09:00:29;;;;;;;33.60;20.90;;;;;;;9.98;95.10;98086.49;134173;1263;108760;-76
2024/02/11 09:03:37;;;;;;;29.00;20.00;;;;;;;10.00;95.32;98081.70;134226;1263;108829;-76
2024/02/11 09:06:53;;;;;;;35.60;21.80;;;;;;;10.01;95.15;98081.01;134218;1263;106207;-78
2024/02/11 09:10:00;;;;;;;36.20;23.20;;;;;;;10.02;95.09;98078.02;134079;1263;109090;-79
2024/02/11 09:13:10;;;;;;;34.30;21.70;;;;;;;10.05;94.95;98078.88;134188;1263;108570;-80
2024/02/11 09:16:25;;;;;;;32.90;20.10;;;;;;;10.10;94.88;98078.31;134184;1263;108739;-76
2024/02/11 09:19:36;;;;;;;30.70;19.90;;;;;;;10.18;95.22;98075.66;134118;1266;107801;-77
2024/02/11 09:22:42;;;;;;;30.10;19.70;;;;;;;10.21;94.93;98074.25;134202;1265;106602;-77
2024/02/11 09:25:48;;;;;;;32.80;20.70;;;;;;;10.25;94.91;98071.85;134185;1265;106542;-77
2024/02/11 09:28:54;;;;;;;28.90;17.90;;;;;;;10.28;94.83;98070.59;134215;1265;107682;-78
2024/02/11 09:31:59;;;;;;;30.40;18.30;;;;;;;10.26;94.40;98071.71;134145;1265;108603;-79
2024/02/11 09:35:05;;;;;;;27.50;15.70;;;;;;;10.28;94.85;98073.95;134188;1264;108567;-79
2024/02/11 09:38:11;;;;;;;28.80;19.20;;;;;;;10.33;95.06;98072.09;134205;1266;107853;-79
2024/02/11 09:41:17;;;;;;;48.20;29.10;;;;;;;10.40;94.58;98071.95;134197;1263;108618;-83
2024/02/11 09:44:26;;;;;;;30.50;19.40;;;;;;;10.49;94.78;98068.22;134211;1263;107127;-85
2024/02/11 09:47:35;;;;;;;27.90;19.20;;;;;;;10.54;94.77;98066.90;134185;1265;107685;-84
2024/02/11 09:50:42;;;;;;;27.80;19.10;;;;;;;10.61;94.96;98058.73;134177;1265;107300;-81
2024/02/11 09:53:52;;;;;;;25.50;17.00;;;;;;;10.67;94.91;98056.14;134173;1265;106964;-85
2024/02/11 09:56:59;;;;;;;25.70;17.50;;;;;;;10.74;94.69;98054.32;134175;1264;107856;-89
2024/02/11 10:00:07;;;;;;;22.70;14.60;;;;;;;10.75;94.56;98054.35;134192;1265;107306;-80
2024/02/11 10:03:17;;;;;;;29.20;19.40;;;;;;;10.78;94.31;98054.31;134193;1265;108823;-78
2024/02/11 10:06:28;;;;;;;32.00;20.80;;;;;;;10.79;94.50;98055.20;134206;1265;108561;-83
2024/02/11 10:09:34;;;;;;;39.10;23.80;;;;;;;10.77;94.19;98054.55;134198;1263;107682;-80
2024/02/11 10:12:43;;;;;;;29.60;20.20;;;;;;;10.73;94.16;98055.63;134231;1263;106367;-82
2024/02/11 10:15:49;;;;;;;25.80;17.30;;;;;;;10.64;94.59;98051.50;134212;1263;108701;-89
2024/02/11 10:18:58;;;;;;;34.10;21.40;;;;;;;10.58;94.48;98046.71;134201;1263;108676;-78
2024/02/11 10:22:04;;;;;;;32.50;22.50;;;;;;;10.56;94.61;98044.21;134206;1263;108967;-77
2024/02/11 10:25:11;;;;;;;32.60;21.80;;;;;;;10.59;94.32;98040.85;134255;1263;107487;-79
2024/02/11 10:28:22;;;;;;;36.40;23.30;;;;;;;10.64;94.60;98037.11;134252;1263;106996;-78
2024/02/11 10:31:29;;;;;;;31.00;20.10;;;;;;;10.71;94.54;98034.55;134211;1264;110071;-78
2024/02/11 10:34:38;;;;;;;34.80;21.30;;;;;;;10.78;94.67;98034.34;134162;1263;106491;-78
2024/02/11 10:37:47;;;;;;;25.00;14.80;;;;;;;10.90;94.67;98029.13;134110;1265;107500;-78
2024/02/11 10:40:58;;;;;;;32.60;19.20;;;;;;;11.06;94.62;98022.05;134222;1263;108419;-78
2024/02/11 10:44:08;;;;;;;30.20;19.40;;;;;;;11.22;94.65;98016.02;134139;1263;107091;-78
2024/02/11 10:47:14;;;;;;;32.30;18.60;;;;;;;11.38;94.71;98013.48;134206;1263;106596;-78
2024/02/11 10:50:24;;;;;;;30.20;18.90;;;;;;;11.48;93.93;98008.42;134185;1263;108445;-78
2024/02/11 10:53:38;;;;;;;42.70;30.90;;;;;;;11.50;93.93;98008.08;134194;1263;108704;-78
2024/02/11 10:56:44;;;;;;;22.40;15.80;;;;;;;11.49;94.12;98002.02;134166;1266;107739;-76
2024/02/11 10:59:58;;;;;;;36.70;24.90;;;;;;;11.46;93.94;98003.39;134168;1263;107923;-78
2024/02/11 11:03:14;;;;;;;45.80;26.20;;;;;;;11.46;94.08;98003.67;134176;1264;107668;-80
2024/02/11 11:06:43;;;;;;;43.10;22.20;;;;;;;11.53;94.11;97998.52;134156;1266;106967;-82
2024/02/11 11:09:49;;;;;;;42.70;23.40;;;;;;;11.58;93.84;97995.05;134087;1263;106645;-81
2024/02/11 11:12:56;;;;;;;64.80;31.80;;;;;;;11.60;93.79;97989.41;134217;1263;106386;-85
2024/02/11 11:16:08;;;;;;;70.80;33.40;;;;;;;11.64;93.84;97986.42;134207;1263;107431;-82
2024/02/11 11:19:15;;;;;;;64.60;30.50;;;;;;;11.72;94.12;97985.96;134210;1263;107691;-81
2024/02/11 11:22:28;;;;;;;38.40;22.10;;;;;;;11.83;93.90;97988.52;134122;1264;107760;-80
2024/02/11 11:25:34;;;;;;;42.40;23.70;;;;;;;11.96;93.64;97993.88;134224;1263;107643;-83
2024/02/11 11:28:42;;;;;;;30.70;18.40;;;;;;;12.07;93.47;97999.92;134184;1263;108452;-81
2024/02/11 11:31:49;;;;;;;24.60;15.70;;;;;;;12.12;93.24;97997.98;134193;1263;108475;-80
2024/02/11 11:34:54;;;;;;;25.40;15.90;;;;;;;12.11;93.16;97998.52;134208;1264;106363;-81
2024/02/11 11:38:02;;;;;;;26.20;15.80;;;;;;;12.05;93.37;97995.86;134219;1264;108731;-81
2024/02/11 11:41:10;;;;;;;32.20;19.00;;;;;;;11.97;93.29;97990.13;134204;1263;107247;-80
2024/02/11 11:44:21;;;;;;;31.90;20.30;;;;;;;11.92;93.28;97990.61;134206;1264;106037;-80
2024/02/11 11:47:26;;;;;;;20.20;13.40;;;;;;;11.94;93.41;97987.23;134224;1263;108550;-81
2024/02/11 11:50:32;;;;;;;33.10;20.50;;;;;;;11.96;93.53;97983.93;134213;1264;107713;-80
2024/02/11 11:53:38;;;;;;;28.10;17.40;;;;;;;11.96;93.16;97983.63;134220;1263;108306;-81
2024/02/11 11:56:44;;;;;;;24.50;15.10;;;;;;;11.93;93.32;97982.09;134248;1264;108606;-77
2024/02/11 11:59:58;;;;;;;19.30;13.40;;;;;;;11.89;93.48;97978.09;134181;1263;106498;-78
2024/02/11 12:03:04;;;;;;;18.90;12.70;;;;;;;11.84;93.46;97974.85;134182;1263;108823;-84
2024/02/11 12:06:11;;;;;;;19.60;12.60;;;;;;;11.80;93.54;97974.48;134225;1264;108660;-79
2024/02/11 12:09:16;;;;;;;22.40;13.80;;;;;;;11.79;93.58;97973.02;134246;1264;107668;-79
2024/02/11 12:12:22;;;;;;;29.20;19.00;;;;;;;11.84;93.82;97971.86;134227;1264;108754;-78
2024/02/11 12:15:29;;;;;;;31.70;18.00;;;;;;;11.87;93.89;97969.40;134137;1266;107637;-78
2024/02/11 12:18:37;;;;;;;39.30;23.60;;;;;;;11.86;93.55;97969.41;134158;1265;108204;-79
2024/02/11 12:21:43;;;;;;;31.00;19.50;;;;;;;11.84;93.49;97961.86;134174;1265;108788;-78
2024/02/11 12:24:49;;;;;;;29.10;19.90;;;;;;;11.86;93.88;97959.42;134201;1266;108749;-77
2024/02/11 12:27:55;;;;;;;33.50;20.70;;;;;;;11.91;93.89;97954.08;134117;1266;108800;-77
2024/02/11 12:31:09;;;;;;;29.10;18.80;;;;;;;11.94;93.82;97949.58;134189;1266;106573;-79
2024/02/11 12:34:16;;;;;;;30.90;18.80;;;;;;;11.96;93.91;97951.02;134176;1267;107986;-77
2024/02/11 12:37:23;;;;;;;46.00;32.10;;;;;;;11.99;93.88;97942.50;134167;1267;107185;-77
2024/02/11 12:40:30;;;;;;;39.60;23.80;;;;;;;11.98;93.93;97939.21;134181;1266;108744;-77
2024/02/11 12:43:39;;;;;;;42.50;23.70;;;;;;;11.99;93.97;97936.41;134176;1267;108635;-78
2024/02/11 12:46:45;;;;;;;29.50;18.00;;;;;;;12.06;93.99;97931.45;134166;1265;108853;-78
2024/02/11 12:49:50;;;;;;;39.50;28.70;;;;;;;12.13;93.70;97929.36;134179;1267;108804;-78
2024/02/11 12:52:56;;;;;;;38.60;26.50;;;;;;;12.21;93.87;97927.53;134218;1265;108732;-78
2024/02/11 12:56:05;;;;;;;44.50;28.60;;;;;;;12.30;93.87;97923.57;134183;1265;107483;-77
2024/02/11 12:59:11;;;;;;;34.50;20.30;;;;;;;12.37;93.63;97923.66;134191;1264;108637;-77
2024/02/11 13:02:16;;;;;;;29.10;17.60;;;;;;;12.41;93.50;97920.58;134196;1265;108419;-77
2024/02/11 13:05:22;;;;;;;24.00;13.00;;;;;;;12.43;93.35;97916.41;134154;1266;107637;-77
2024/02/11 13:08:31;;;;;;;20.80;13.80;;;;;;;12.48;93.15;97915.92;134181;1264;106865;-77
2024/02/11 13:11:37;;;;;;;88.50;47.10;;;;;;;12.53;93.22;97913.12;134188;1265;107540;-77
2024/02/11 13:14:43;;;;;;;25.90;17.00;;;;;;;12.57;93.28;97907.52;134110;1264;108610;-78
2024/02/11 13:17:49;;;;;;;19.90;13.80;;;;;;;12.56;92.85;97907.48;134203;1264;109121;-78
2024/02/11 13:20:56;;;;;;;21.20;15.30;;;;;;;12.50;92.83;97907.68;134195;1264;107791;-77
2024/02/11 13:24:02;;;;;;;18.50;12.40;;;;;;;12.44;93.13;97906.48;134188;1264;107863;-77
2024/02/11 13:27:07;;;;;;;18.70;12.10;;;;;;;12.41;93.33;97907.52;134150;1264;107479;-77
2024/02/11 13:30:14;;;;;;;19.00;11.90;;;;;;;12.42;93.30;97907.07;134223;1263;107752;-77
2024/02/11 13:33:20;;;;;;;20.20;13.10;;;;;;;12.46;93.20;97907.04;134209;1266;107685;-77
2024/02/11 13:36:27;;;;;;;19.40;13.20;;;;;;;12.49;93.32;97907.23;134197;1266;107606;-77
2024/02/11 13:39:33;;;;;;;22.20;13.30;;;;;;;12.53;93.33;97908.52;134183;1267;107782;-77
2024/02/11 13:42:39;;;;;;;22.50;13.20;;;;;;;12.48;92.94;97911.33;134205;1264;106694;-77
2024/02/11 13:45:44;;;;;;;18.10;11.40;;;;;;;12.39;92.96;97910.89;134191;1265;106320;-77
2024/02/11 13:48:51;;;;;;;15.60;11.30;;;;;;;12.30;93.13;97912.51;134199;1266;107335;-77
2024/02/11 13:51:56;;;;;;;17.80;11.80;;;;;;;12.27;93.24;97912.77;134179;1266;106966;-77
2024/02/11 13:55:02;;;;;;;15.00;10.40;;;;;;;12.25;93.13;97914.12;134173;1266;108374;-77
2024/02/11 13:58:09;;;;;;;17.00;10.90;;;;;;;12.25;93.07;97911.00;134184;1267;108761;-77
2024/02/11 14:01:16;;;;;;;15.80;11.00;;;;;;;12.22;92.95;97916.05;134200;1266;108318;-77
2024/02/11 14:04:23;;;;;;;14.70;9.80;;;;;;;12.13;92.94;97917.23;134173;1266;107913;-77
2024/02/11 14:07:29;;;;;;;16.20;9.40;;;;;;;12.09;92.77;97914.27;134172;1265;107520;-77